Los Barrios, Spain
Current Conditions -  °F | °C
As of 5:30 AM on Sunday 21 Dec 2014 (Local Time) from LEAG Reporting Station
Overcast Overcast  
Wind Chill: 59°   Ceiling: 2900
Heat Index: 59°   Visibility: 6mi
Dew Point: 54°   Wind: 8mph
Humidity: 82%   Direction: 70°ENE
Pressure: 30.42"   Gusts: NA
Location:  36.18°N, 5.49°W
Report Text: LEAG 210430Z AUTO 07007KT 9999 OVC029 15/12 Q1030
Loading
Personal Weather Stations






























Interactive Weather Map New forecast layout! Learn more

10-Day Weather Forecast

Advertisements
Track Severe Weather on mobile